createdAt,value
2023-02-21T00:01:06.637Z,5.26
2023-02-21T00:04:08.198Z,5.90
2023-02-21T00:07:09.031Z,5.94
2023-02-21T00:10:11.566Z,6.02
2023-02-21T00:13:13.922Z,5.88
2023-02-21T00:16:15.369Z,5.97
2023-02-21T00:19:17.172Z,6.28
2023-02-21T00:22:18.713Z,6.29
2023-02-21T00:25:21.200Z,6.17
2023-02-21T00:28:22.607Z,6.33
2023-02-21T00:31:24.711Z,6.41
2023-02-21T00:34:26.001Z,6.36
2023-02-21T00:37:27.228Z,6.40
2023-02-21T00:40:32.946Z,6.45
2023-02-21T00:43:36.650Z,6.49
2023-02-21T00:46:38.753Z,6.35
2023-02-21T00:49:40.497Z,6.37
2023-02-21T00:52:42.176Z,6.47
2023-02-21T00:55:45.261Z,6.76
2023-02-21T00:58:46.597Z,6.77
2023-02-21T01:01:48.154Z,6.71
2023-02-21T01:04:49.172Z,6.80
2023-02-21T01:07:50.601Z,6.76
2023-02-21T01:10:53.357Z,7.03
2023-02-21T01:13:55.331Z,6.86
2023-02-21T01:16:59.422Z,7.04
2023-02-21T01:20:09.520Z,7.01
2023-02-21T01:23:11.731Z,6.95
2023-02-21T01:26:14.454Z,6.82
2023-02-21T01:29:15.617Z,6.53
2023-02-21T01:32:16.967Z,6.43
2023-02-21T01:35:18.227Z,6.31
2023-02-21T01:38:19.833Z,6.36
2023-02-21T01:41:22.643Z,6.36
2023-02-21T01:44:26.943Z,6.56
2023-02-21T01:47:29.995Z,6.55
2023-02-21T01:50:38.513Z,6.73
2023-02-21T01:53:42.920Z,6.79
2023-02-21T01:56:48.262Z,6.83
2023-02-21T01:59:50.542Z,7.09
2023-02-21T02:02:57.113Z,7.27
2023-02-21T02:06:00.273Z,7.49
2023-02-21T02:09:02.261Z,7.38
2023-02-21T02:12:25.740Z,7.67
2023-02-21T02:15:23.056Z,7.77
2023-02-21T02:18:45.983Z,7.72
2023-02-21T02:22:08.349Z,7.97
2023-02-21T02:25:08.638Z,7.94
2023-02-21T02:28:14.996Z,7.86
2023-02-21T02:31:29.956Z,7.94
2023-02-21T02:34:38.933Z,8.18
2023-02-21T02:37:33.025Z,7.95
2023-02-21T02:40:26.916Z,7.99
2023-02-21T02:43:17.812Z,7.91
2023-02-21T02:46:09.660Z,8.08
2023-02-21T02:48:59.400Z,8.15
2023-02-21T02:51:45.254Z,7.68
2023-02-21T02:54:29.178Z,8.15
2023-02-21T02:57:14.583Z,8.15
2023-02-21T02:59:58.994Z,8.18
2023-02-21T03:02:58.791Z,7.81
2023-02-21T03:05:56.141Z,8.07
2023-02-21T03:08:50.432Z,7.91
2023-02-21T03:11:35.045Z,8.19
2023-02-21T03:14:25.135Z,8.13
2023-02-21T03:17:13.133Z,7.96
2023-02-21T03:20:00.699Z,7.88
2023-02-21T03:22:47.156Z,7.91
2023-02-21T03:25:35.283Z,7.81
2023-02-21T03:28:22.345Z,7.61
2023-02-21T03:31:09.950Z,7.55
2023-02-21T03:33:54.781Z,7.47
2023-02-21T03:36:39.859Z,7.38
2023-02-21T03:39:23.929Z,7.27
2023-02-21T03:42:09.320Z,6.93
2023-02-21T03:44:54.467Z,6.89
2023-02-21T03:47:40.581Z,6.77
2023-02-21T03:50:24.421Z,6.56
2023-02-21T03:53:09.678Z,6.17
2023-02-21T03:55:55.198Z,6.47
2023-02-21T03:58:49.986Z,6.42
2023-02-21T04:01:34.369Z,6.57
2023-02-21T04:04:18.605Z,6.44
2023-02-21T04:07:06.713Z,6.99
2023-02-21T04:09:51.204Z,7.26
2023-02-21T04:12:48.124Z,7.48
2023-02-21T04:15:34.792Z,7.78
2023-02-21T04:18:19.087Z,7.73
2023-02-21T04:21:05.964Z,7.62
2023-02-21T04:23:50.412Z,8.07
2023-02-21T04:26:35.228Z,7.93
2023-02-21T04:29:20.367Z,8.19
2023-02-21T04:32:06.233Z,8.37
2023-02-21T04:34:51.912Z,8.19
2023-02-21T04:37:35.669Z,8.18
2023-02-21T04:40:20.214Z,8.24
2023-02-21T04:43:04.289Z,8.09
2023-02-21T04:45:48.705Z,8.23
2023-02-21T04:48:36.104Z,8.04
2023-02-21T04:51:23.341Z,8.35
2023-02-21T04:54:07.918Z,8.38
2023-02-21T04:56:51.791Z,8.31
2023-02-21T04:59:35.646Z,8.28
2023-02-21T05:02:19.506Z,8.01
2023-02-21T05:05:04.920Z,7.62
2023-02-21T05:07:48.900Z,7.54
2023-02-21T05:10:44.959Z,7.62
2023-02-21T05:13:29.345Z,7.69
2023-02-21T05:16:13.887Z,7.73
2023-02-21T05:18:57.974Z,7.62
2023-02-21T05:21:43.291Z,7.93
2023-02-21T05:24:28.616Z,7.87
2023-02-21T05:27:15.852Z,7.88
2023-02-21T05:29:59.963Z,8.05
2023-02-21T05:32:44.491Z,8.27
2023-02-21T05:35:28.471Z,8.29
2023-02-21T05:38:14.563Z,8.25
2023-02-21T05:40:58.667Z,8.27
2023-02-21T05:43:44.929Z,8.46
2023-02-21T05:46:31.086Z,8.39
2023-02-21T05:49:15.112Z,8.53
2023-02-21T05:51:58.886Z,8.66
2023-02-21T05:54:44.156Z,8.84
2023-02-21T05:57:27.872Z,9.06
2023-02-21T06:00:17.075Z,9.13
2023-02-21T06:03:03.721Z,9.30
2023-02-21T06:05:48.546Z,9.47
2023-02-21T06:08:32.466Z,9.66
2023-02-21T06:11:23.573Z,9.56
2023-02-21T06:14:09.709Z,9.73
2023-02-21T06:16:53.478Z,9.89
2023-02-21T06:19:37.229Z,9.96
2023-02-21T06:22:21.110Z,10.20
2023-02-21T06:25:05.012Z,10.34
2023-02-21T06:27:50.568Z,10.37
2023-02-21T06:30:34.421Z,10.68
2023-02-21T06:33:18.531Z,10.63
2023-02-21T06:36:05.814Z,10.75
2023-02-21T06:38:51.520Z,10.81
2023-02-21T06:41:35.340Z,10.81
2023-02-21T06:44:20.777Z,11.01
2023-02-21T06:47:04.725Z,10.98
2023-02-21T06:49:48.610Z,10.80
2023-02-21T06:52:32.694Z,10.93
2023-02-21T06:55:23.081Z,10.89
2023-02-21T06:58:09.058Z,10.80
2023-02-21T07:00:54.191Z,10.84
2023-02-21T07:03:43.277Z,10.98
2023-02-21T07:06:29.857Z,11.24
2023-02-21T07:09:14.462Z,11.10
2023-02-21T07:11:58.437Z,11.28
2023-02-21T07:14:42.305Z,11.38
2023-02-21T07:17:27.780Z,11.50
2023-02-21T07:20:12.380Z,11.79
2023-02-21T07:22:56.252Z,11.77
2023-02-21T07:25:39.951Z,11.83
2023-02-21T07:28:23.702Z,11.66
2023-02-21T07:31:07.930Z,11.95
2023-02-21T07:33:53.186Z,12.20
2023-02-21T07:36:40.139Z,12.41
2023-02-21T07:39:24.185Z,12.40
2023-02-21T07:42:09.112Z,12.31
2023-02-21T07:44:56.980Z,12.54
2023-02-21T07:47:40.892Z,12.76
2023-02-21T07:50:26.086Z,12.34
2023-02-21T07:53:11.257Z,12.84
2023-02-21T07:55:55.097Z,12.89
2023-02-21T07:58:38.956Z,13.24
2023-02-21T08:01:24.850Z,13.32
2023-02-21T08:04:08.948Z,13.24
2023-02-21T08:06:59.338Z,13.35
2023-02-21T08:09:43.252Z,13.44
2023-02-21T08:12:27.079Z,14.00
2023-02-21T08:15:11.066Z,14.00
2023-02-21T08:17:55.047Z,13.88
2023-02-21T08:20:38.926Z,13.84
2023-02-21T08:23:24.816Z,13.98
2023-02-21T08:26:08.665Z,14.10
2023-02-21T08:28:52.545Z,14.33
2023-02-21T08:31:36.795Z,14.58
2023-02-21T08:34:20.602Z,14.57
2023-02-21T08:37:06.726Z,14.64
2023-02-21T08:39:53.970Z,15.07
2023-02-21T08:42:37.828Z,14.96
2023-02-21T08:45:24.148Z,15.16
2023-02-21T08:48:08.083Z,15.05
2023-02-21T08:50:52.351Z,14.77
2023-02-21T08:53:36.205Z,14.72
2023-02-21T08:56:21.835Z,15.79
2023-02-21T08:59:05.869Z,15.98
2023-02-21T09:01:49.778Z,15.83
2023-02-21T09:04:33.653Z,15.56
2023-02-21T09:07:19.664Z,15.63
2023-02-21T09:10:03.751Z,15.76
2023-02-21T09:12:49.098Z,15.86
2023-02-21T09:15:33.153Z,15.70
2023-02-21T09:18:17.059Z,15.75
2023-02-21T09:21:01.012Z,16.04
2023-02-21T09:23:44.900Z,15.70
2023-02-21T09:26:31.989Z,15.95
2023-02-21T09:29:17.137Z,16.17
2023-02-21T09:32:01.758Z,15.98
2023-02-21T09:34:45.766Z,15.90
2023-02-21T09:37:30.132Z,16.03
2023-02-21T09:40:21.953Z,15.87
2023-02-21T09:43:09.977Z,15.49
2023-02-21T09:46:00.138Z,15.74
2023-02-21T09:48:45.333Z,15.88
2023-02-21T09:51:30.104Z,15.97
2023-02-21T09:54:23.207Z,16.01
2023-02-21T09:57:12.086Z,16.21
2023-02-21T09:59:56.022Z,16.53
2023-02-21T10:02:53.934Z,16.25
2023-02-21T10:05:45.756Z,16.52
2023-02-21T10:08:41.071Z,16.67
2023-02-21T10:11:35.474Z,16.03
2023-02-21T10:14:28.579Z,16.55
2023-02-21T10:17:20.408Z,16.83
2023-02-21T10:20:13.799Z,17.07
2023-02-21T10:22:57.967Z,16.70
2023-02-21T10:25:44.971Z,17.34
2023-02-21T10:28:28.732Z,17.43
2023-02-21T10:31:17.517Z,17.66
2023-02-21T10:34:01.649Z,17.80
2023-02-21T10:36:47.051Z,17.90
2023-02-21T10:39:37.989Z,17.53
2023-02-21T10:42:30.060Z,18.18
2023-02-21T10:45:17.489Z,17.65
2023-02-21T10:48:05.386Z,17.93
2023-02-21T10:51:05.466Z,18.04
2023-02-21T10:53:52.833Z,18.38
2023-02-21T10:56:39.630Z,18.30
2023-02-21T10:59:27.451Z,18.72
2023-02-21T11:02:31.981Z,18.69
2023-02-21T11:05:18.421Z,18.45
2023-02-21T11:08:07.208Z,18.49
2023-02-21T11:10:56.689Z,18.46
2023-02-21T11:13:40.605Z,18.65
2023-02-21T11:16:24.782Z,18.56
2023-02-21T11:19:09.197Z,19.06
2023-02-21T11:21:57.275Z,19.07
2023-02-21T11:24:59.012Z,18.92
2023-02-21T11:27:46.470Z,18.75
2023-02-21T11:30:33.221Z,18.72
2023-02-21T11:33:21.460Z,18.61
2023-02-21T11:36:13.512Z,18.80
2023-02-21T11:39:07.384Z,18.73
2023-02-21T11:41:52.434Z,18.57
2023-02-21T11:44:39.278Z,18.58
2023-02-21T11:47:27.831Z,18.27
2023-02-21T11:50:16.861Z,18.15
2023-02-21T11:53:07.622Z,18.08
2023-02-21T11:55:59.463Z,18.12
2023-02-21T11:58:50.398Z,18.06
2023-02-21T12:01:40.728Z,18.02
2023-02-21T12:04:53.564Z,18.12
2023-02-21T12:07:47.151Z,17.88
2023-02-21T12:10:45.143Z,17.90
2023-02-21T12:13:37.533Z,18.07
2023-02-21T12:16:31.559Z,18.12
2023-02-21T12:19:37.171Z,17.93
2023-02-21T12:22:35.441Z,17.72
2023-02-21T12:25:24.903Z,17.80
2023-02-21T12:28:20.908Z,17.66
2023-02-21T12:31:14.351Z,17.41
2023-02-21T12:34:11.400Z,17.59
2023-02-21T12:37:21.735Z,17.37
2023-02-21T12:40:17.370Z,17.57
2023-02-21T12:43:18.068Z,17.59
2023-02-21T12:46:12.862Z,17.22
2023-02-21T12:49:03.894Z,17.18
2023-02-21T12:51:51.872Z,17.25
2023-02-21T12:54:44.832Z,17.25
2023-02-21T12:57:35.569Z,17.21
2023-02-21T13:00:23.129Z,17.10
2023-02-21T13:03:19.148Z,17.23
2023-02-21T13:06:08.481Z,16.98
2023-02-21T13:09:09.198Z,17.01
2023-02-21T13:12:01.234Z,17.02
2023-02-21T13:14:50.017Z,17.02
2023-02-21T13:17:34.007Z,17.20
2023-02-21T13:20:22.676Z,17.16
2023-02-21T13:23:43.762Z,17.23
2023-02-21T13:26:39.073Z,17.04
2023-02-21T13:29:28.070Z,17.15
2023-02-21T13:32:17.336Z,17.37
2023-02-21T13:35:06.243Z,17.55
2023-02-21T13:37:53.443Z,17.98
2023-02-21T13:40:39.795Z,18.28
2023-02-21T13:43:26.717Z,18.35
2023-02-21T13:47:05.484Z,18.31
2023-02-21T13:49:52.214Z,18.48
2023-02-21T13:53:16.625Z,18.50
2023-02-21T13:56:21.599Z,18.38
2023-02-21T13:59:33.735Z,18.37
2023-02-21T14:02:30.866Z,18.60
2023-02-21T14:05:14.733Z,18.55
2023-02-21T14:08:02.750Z,18.34
2023-02-21T14:10:49.264Z,18.28
2023-02-21T14:13:36.573Z,18.48
2023-02-21T14:16:24.453Z,18.48
2023-02-21T14:19:12.442Z,18.26
2023-02-21T14:22:04.081Z,18.30
2023-02-21T14:24:50.287Z,18.35
2023-02-21T14:27:40.804Z,18.31
2023-02-21T14:30:35.658Z,18.19
2023-02-21T14:33:26.696Z,18.21
2023-02-21T14:36:15.158Z,18.21
2023-02-21T14:38:59.286Z,17.99
2023-02-21T14:41:58.736Z,18.05
2023-02-21T14:44:57.400Z,18.12
2023-02-21T14:48:01.003Z,18.02
2023-02-21T14:51:04.909Z,17.95
2023-02-21T14:54:21.521Z,17.89
2023-02-21T14:57:30.179Z,17.93
2023-02-21T15:00:24.209Z,17.72
2023-02-21T15:03:14.265Z,17.98
2023-02-21T15:06:04.738Z,17.75
2023-02-21T15:08:50.734Z,17.78
2023-02-21T15:11:39.492Z,17.65
2023-02-21T15:14:26.435Z,17.52
2023-02-21T15:17:18.202Z,17.56
2023-02-21T15:20:07.110Z,17.43
2023-02-21T15:22:57.387Z,17.35
2023-02-21T15:25:41.349Z,17.12
2023-02-21T15:28:28.896Z,17.10
2023-02-21T15:31:14.766Z,16.91
2023-02-21T15:33:58.957Z,16.04
2023-02-21T15:36:43.068Z,16.70
2023-02-21T15:39:32.561Z,16.57
2023-02-21T15:42:18.140Z,16.68
2023-02-21T15:45:07.216Z,16.61
2023-02-21T15:47:51.973Z,16.34
2023-02-21T15:50:38.813Z,16.21
2023-02-21T15:53:24.954Z,16.25
2023-02-21T15:56:21.680Z,16.23
2023-02-21T15:59:14.988Z,16.24
2023-02-21T16:02:15.367Z,16.06
2023-02-21T16:04:59.222Z,16.08
2023-02-21T16:07:44.393Z,15.82
2023-02-21T16:10:29.215Z,15.84
2023-02-21T16:13:14.803Z,15.79
2023-02-21T16:16:01.687Z,15.76
2023-02-21T16:18:47.022Z,15.56
2023-02-21T16:21:31.445Z,15.72
2023-02-21T16:24:30.740Z,15.69
2023-02-21T16:27:17.846Z,15.60
2023-02-21T16:30:04.092Z,15.51
2023-02-21T16:32:50.434Z,15.14
2023-02-21T16:35:35.856Z,14.87
2023-02-21T16:38:21.460Z,14.99
2023-02-21T16:41:05.474Z,14.72
2023-02-21T16:43:49.347Z,14.51
2023-02-21T16:46:33.194Z,14.91
2023-02-21T16:49:16.987Z,15.00
2023-02-21T16:52:02.138Z,14.90
2023-02-21T16:54:46.841Z,14.84
2023-02-21T16:57:30.902Z,14.90
2023-02-21T17:00:15.908Z,14.88
2023-02-21T17:02:59.823Z,14.85
2023-02-21T17:05:43.709Z,15.01
2023-02-21T17:08:28.920Z,15.12
2023-02-21T17:11:13.094Z,14.86
2023-02-21T17:13:56.984Z,13.89
2023-02-21T17:16:44.931Z,14.97
2023-02-21T17:19:28.690Z,14.62
2023-02-21T17:22:12.482Z,14.73
2023-02-21T17:24:57.764Z,14.58
2023-02-21T17:27:41.678Z,14.67
2023-02-21T17:30:26.157Z,14.88
2023-02-21T17:33:11.126Z,14.94
2023-02-21T17:35:54.949Z,14.86
2023-02-21T17:38:38.713Z,14.88
2023-02-21T17:41:24.204Z,14.99
2023-02-21T17:44:08.226Z,15.03
2023-02-21T17:46:53.684Z,15.26
2023-02-21T17:49:37.538Z,15.48
2023-02-21T17:52:22.190Z,15.69
2023-02-21T17:55:08.145Z,15.51
2023-02-21T17:57:53.992Z,15.65
2023-02-21T18:00:39.440Z,15.66
2023-02-21T18:03:23.670Z,15.71
2023-02-21T18:06:08.132Z,15.83
2023-02-21T18:08:51.797Z,15.61
2023-02-21T18:11:37.017Z,15.51
2023-02-21T18:14:25.522Z,15.47
2023-02-21T18:17:09.394Z,15.57
2023-02-21T18:19:53.256Z,15.37
2023-02-21T18:22:37.305Z,15.09
2023-02-21T18:25:24.232Z,15.52
2023-02-21T18:28:08.693Z,15.58
2023-02-21T18:30:54.685Z,15.51
2023-02-21T18:33:38.629Z,15.40
2023-02-21T18:36:22.497Z,15.45
2023-02-21T18:39:07.144Z,15.30
2023-02-21T18:41:51.582Z,15.16
2023-02-21T18:44:35.422Z,15.42
2023-02-21T18:47:21.117Z,15.17
2023-02-21T18:50:06.022Z,15.13
2023-02-21T18:52:49.834Z,15.14
2023-02-21T18:55:33.948Z,15.02
2023-02-21T18:58:17.895Z,15.01
2023-02-21T19:01:01.829Z,14.93
2023-02-21T19:03:47.329Z,14.97
2023-02-21T19:06:33.195Z,14.65
2023-02-21T19:09:16.991Z,14.56
2023-02-21T19:12:00.849Z,14.48
2023-02-21T19:14:45.088Z,14.37
2023-02-21T19:17:29.482Z,14.60
2023-02-21T19:20:19.387Z,14.29
2023-02-21T19:23:03.490Z,14.39
2023-02-21T19:25:47.510Z,14.29
2023-02-21T19:28:31.831Z,14.45
2023-02-21T19:31:19.626Z,13.99
2023-02-21T19:34:03.636Z,13.86
2023-02-21T19:36:48.897Z,14.00
2023-02-21T19:39:32.760Z,13.64
2023-02-21T19:42:16.544Z,13.85
2023-02-21T19:45:00.412Z,13.87
2023-02-21T19:47:44.494Z,13.91
2023-02-21T19:50:30.900Z,13.83
2023-02-21T19:53:16.342Z,13.97
2023-02-21T19:56:00.193Z,13.86
2023-02-21T19:58:45.443Z,13.97
2023-02-21T20:01:30.341Z,13.84
2023-02-21T20:04:15.030Z,13.90
2023-02-21T20:07:00.302Z,13.17
2023-02-21T20:09:48.021Z,13.66
2023-02-21T20:12:32.015Z,13.73
2023-02-21T20:15:15.877Z,13.32
2023-02-21T20:17:59.794Z,13.62
2023-02-21T20:20:43.878Z,13.72
2023-02-21T20:23:27.809Z,13.36
2023-02-21T20:26:14.179Z,13.75
2023-02-21T20:28:58.316Z,13.84
2023-02-21T20:31:42.425Z,13.90
2023-02-21T20:34:26.500Z,13.72
2023-02-21T20:37:12.011Z,13.75
2023-02-21T20:39:55.777Z,14.01
2023-02-21T20:42:41.024Z,13.85
2023-02-21T20:45:25.032Z,13.90
2023-02-21T20:48:11.038Z,13.90
2023-02-21T20:50:54.987Z,13.81
2023-02-21T20:53:39.030Z,13.75
2023-02-21T20:56:24.410Z,13.70
2023-02-21T20:59:15.962Z,13.52
2023-02-21T21:02:01.134Z,13.60
2023-02-21T21:04:47.849Z,13.66
2023-02-21T21:07:31.625Z,13.72
2023-02-21T21:10:19.228Z,13.64
2023-02-21T21:13:03.081Z,13.57
2023-02-21T21:15:48.814Z,13.78
2023-02-21T21:18:32.755Z,13.77
2023-02-21T21:21:16.874Z,13.64
2023-02-21T21:24:01.438Z,13.81
2023-02-21T21:26:51.072Z,13.72
2023-02-21T21:29:36.535Z,13.37
2023-02-21T21:32:24.721Z,13.67
2023-02-21T21:35:08.766Z,13.72
2023-02-21T21:37:52.562Z,13.72
2023-02-21T21:40:36.303Z,13.41
2023-02-21T21:43:20.630Z,13.41
2023-02-21T21:46:04.353Z,13.29
2023-02-21T21:48:49.803Z,12.94
2023-02-21T21:51:34.090Z,12.99
2023-02-21T21:54:21.715Z,12.81
2023-02-21T21:57:06.601Z,12.79
2023-02-21T21:59:51.180Z,12.65
2023-02-21T22:02:34.920Z,12.67
2023-02-21T22:05:21.184Z,12.46
2023-02-21T22:08:05.036Z,12.01
2023-02-21T22:10:48.796Z,11.47
2023-02-21T22:13:33.960Z,11.32
2023-02-21T22:16:18.198Z,11.35
2023-02-21T22:19:02.074Z,11.18
2023-02-21T22:21:47.669Z,11.07
2023-02-21T22:24:33.717Z,11.10
2023-02-21T22:27:17.511Z,11.31
2023-02-21T22:30:03.317Z,11.34
2023-02-21T22:32:48.486Z,10.95
2023-02-21T22:35:32.440Z,11.18
2023-02-21T22:38:17.932Z,11.13
2023-02-21T22:41:01.825Z,11.45
2023-02-21T22:43:49.236Z,11.11
2023-02-21T22:46:41.670Z,11.44
2023-02-21T22:49:25.927Z,11.51
2023-02-21T22:52:10.821Z,11.45
2023-02-21T22:54:56.065Z,11.52
2023-02-21T22:57:39.777Z,11.28
2023-02-21T23:00:26.115Z,11.40
2023-02-21T23:03:13.890Z,11.42
2023-02-21T23:06:02.066Z,11.60
2023-02-21T23:08:49.029Z,11.69
2023-02-21T23:11:34.487Z,11.51
2023-02-21T23:14:19.255Z,11.77
2023-02-21T23:17:03.168Z,11.72
2023-02-21T23:19:46.884Z,11.79
2023-02-21T23:22:31.615Z,11.61
2023-02-21T23:25:25.711Z,11.33
2023-02-21T23:28:12.939Z,11.22
2023-02-21T23:30:58.410Z,11.19
2023-02-21T23:33:42.538Z,11.19
2023-02-21T23:36:27.877Z,11.13
2023-02-21T23:39:12.631Z,11.13
2023-02-21T23:41:58.734Z,10.79
2023-02-21T23:44:45.234Z,10.96
2023-02-21T23:47:31.846Z,10.70
2023-02-21T23:50:18.281Z,10.71
2023-02-21T23:53:02.486Z,10.77
2023-02-21T23:55:47.400Z,10.87
2023-02-21T23:58:32.602Z,10.92
